createdAt,value
2022-09-12T00:02:37.948Z,2.90
2022-09-12T00:05:36.014Z,2.70
2022-09-12T00:08:32.009Z,2.60
2022-09-12T00:11:27.976Z,2.90
2022-09-12T00:14:25.253Z,2.70
2022-09-12T00:17:23.886Z,2.60
2022-09-12T00:20:23.056Z,2.80
2022-09-12T00:23:21.957Z,3.70
2022-09-12T00:26:18.288Z,3.30
2022-09-12T00:29:14.996Z,2.70
2022-09-12T00:32:11.088Z,2.80
2022-09-12T00:35:07.106Z,2.60
2022-09-12T00:38:03.973Z,2.80
2022-09-12T00:41:00.042Z,3.00
2022-09-12T00:43:55.973Z,2.90
2022-09-12T00:49:53.768Z,3.00
2022-09-12T00:52:49.998Z,3.20
2022-09-12T00:55:45.866Z,3.10
2022-09-12T00:58:41.792Z,2.90
2022-09-12T01:01:37.902Z,3.10
2022-09-12T01:04:33.996Z,2.50
2022-09-12T01:07:29.863Z,3.00
2022-09-12T01:10:29.026Z,3.20
2022-09-12T01:13:24.962Z,2.90
2022-09-12T01:19:20.653Z,3.20
2022-09-12T01:22:16.866Z,3.20
2022-09-12T01:25:15.574Z,3.20
2022-09-12T01:28:11.932Z,3.50
2022-09-12T01:31:10.318Z,2.90
2022-09-12T01:34:06.897Z,2.90
2022-09-12T01:37:02.982Z,3.00
2022-09-12T01:39:59.000Z,3.00
2022-09-12T01:42:55.221Z,3.00
2022-09-12T01:45:55.070Z,3.50
2022-09-12T01:48:51.296Z,3.10
2022-09-12T01:51:49.477Z,3.10
2022-09-12T01:54:45.962Z,3.10
2022-09-12T01:57:42.100Z,2.90
2022-09-12T02:00:38.203Z,2.80
2022-09-12T02:03:38.636Z,2.80
2022-09-12T02:06:34.843Z,2.80
2022-09-12T02:09:30.882Z,3.50
2022-09-12T02:12:32.049Z,2.70
2022-09-12T02:15:29.016Z,2.80
2022-09-12T02:18:29.144Z,3.10
2022-09-12T02:21:28.999Z,2.80
2022-09-12T02:24:24.800Z,2.90
2022-09-12T02:27:21.426Z,2.80
2022-09-12T02:33:16.916Z,2.80
2022-09-12T02:36:24.646Z,2.80
2022-09-12T02:39:24.006Z,3.10
2022-09-12T02:42:19.926Z,2.90
2022-09-12T02:45:15.706Z,3.10
2022-09-12T02:48:13.432Z,3.10
2022-09-12T02:51:09.734Z,2.70
2022-09-12T02:54:07.034Z,2.80
2022-09-12T02:57:04.598Z,2.70
2022-09-12T03:00:00.755Z,2.70
2022-09-12T03:02:56.712Z,2.90
2022-09-12T03:05:52.762Z,2.90
2022-09-12T03:08:49.719Z,3.10
2022-09-12T03:11:51.778Z,2.70
2022-09-12T03:14:47.722Z,3.00
2022-09-12T03:17:44.857Z,2.90
2022-09-12T03:20:42.489Z,3.10
2022-09-12T03:23:38.668Z,2.40
2022-09-12T03:26:34.616Z,2.80
2022-09-12T03:29:33.831Z,2.90
2022-09-12T03:32:29.637Z,2.70
2022-09-12T03:35:25.925Z,2.80
2022-09-12T03:38:21.750Z,2.50
2022-09-12T03:41:17.722Z,2.60
2022-09-12T03:44:13.753Z,3.00
2022-09-12T03:47:11.336Z,2.80
2022-09-12T03:50:08.176Z,2.80
2022-09-12T03:53:04.738Z,2.50
2022-09-12T03:56:04.752Z,2.90
2022-09-12T03:59:00.886Z,2.70
2022-09-12T04:01:56.695Z,3.10
2022-09-12T04:05:06.722Z,2.70
2022-09-12T04:10:58.682Z,3.10
2022-09-12T04:13:54.710Z,2.80
2022-09-12T04:16:56.907Z,2.70
2022-09-12T04:19:52.748Z,2.70
2022-09-12T04:22:48.743Z,2.90
2022-09-12T04:25:44.843Z,2.50
2022-09-12T04:28:40.712Z,2.80
2022-09-12T04:31:37.938Z,2.70
2022-09-12T04:34:33.708Z,2.50
2022-09-12T04:37:32.017Z,2.70
2022-09-12T04:40:30.107Z,2.70
2022-09-12T04:43:26.960Z,2.50
2022-09-12T04:46:23.204Z,3.00
2022-09-12T04:49:21.652Z,2.80
2022-09-12T04:52:21.713Z,2.80
2022-09-12T04:55:22.732Z,2.70
2022-09-12T04:58:18.896Z,2.60
2022-09-12T05:01:22.092Z,2.50
2022-09-12T05:04:26.365Z,2.90
2022-09-12T05:07:27.032Z,2.50
2022-09-12T05:10:25.532Z,2.60
2022-09-12T05:13:22.908Z,2.90
2022-09-12T05:16:20.720Z,2.90
2022-09-12T05:19:18.234Z,2.90
2022-09-12T05:22:15.741Z,2.80
2022-09-12T05:25:23.239Z,3.30
2022-09-12T05:31:59.270Z,3.10
2022-09-12T05:45:23.482Z,4.30
2022-09-12T05:48:25.887Z,3.80
2022-09-12T05:51:26.059Z,3.00
2022-09-12T05:54:24.348Z,2.90
2022-09-12T05:57:21.871Z,2.90
2022-09-12T06:00:17.715Z,3.50
2022-09-12T06:06:21.085Z,3.10
2022-09-12T06:09:20.596Z,3.00
2022-09-12T06:12:28.235Z,3.10
2022-09-12T06:15:32.161Z,3.00
2022-09-12T06:18:31.871Z,2.80
2022-09-12T06:21:53.206Z,3.10
2022-09-12T06:25:05.722Z,2.60
2022-09-12T06:27:48.059Z,3.20
2022-09-12T06:30:28.988Z,2.70
2022-09-12T06:33:14.326Z,2.90
2022-09-12T06:36:12.617Z,2.30
2022-09-12T06:39:12.797Z,2.70
2022-09-12T06:42:04.042Z,2.30
2022-09-12T06:45:03.772Z,2.40
2022-09-12T07:55:48.577Z,2.20
2022-09-12T07:58:59.738Z,1.80
2022-09-12T08:02:00.653Z,2.10
2022-09-12T08:05:08.616Z,1.90
2022-09-12T08:08:17.453Z,2.00
2022-09-12T08:11:26.707Z,1.90
2022-09-12T08:14:40.493Z,2.40
2022-09-12T08:17:32.407Z,1.90
2022-09-12T08:20:37.745Z,1.90
2022-09-12T08:23:33.805Z,2.10
2022-09-12T08:26:34.016Z,2.20
2022-09-12T08:29:42.588Z,1.80
2022-09-12T08:32:51.163Z,2.00
2022-09-12T08:36:00.338Z,2.10
2022-09-12T08:38:39.564Z,1.80
2022-09-12T08:41:28.631Z,2.00
2022-09-12T08:44:05.032Z,1.80
2022-09-12T08:46:35.512Z,1.80
2022-09-12T08:49:31.631Z,1.90
2022-09-12T08:52:27.220Z,1.80
2022-09-12T08:54:59.015Z,1.80
2022-09-12T08:57:31.345Z,1.70
2022-09-12T09:00:14.905Z,1.60
2022-09-12T09:03:03.755Z,1.70
2022-09-12T09:06:07.827Z,1.90
2022-09-12T09:08:53.511Z,1.80
2022-09-12T09:11:56.580Z,2.00
2022-09-12T09:14:59.545Z,1.80
2022-09-12T09:17:46.768Z,1.80
2022-09-12T09:20:34.087Z,1.90
2022-09-12T09:23:22.868Z,1.50
2022-09-12T09:26:54.448Z,1.80
2022-09-12T09:29:31.862Z,1.50
2022-09-12T09:32:06.559Z,2.00
2022-09-12T09:34:50.262Z,1.70
2022-09-12T09:37:58.734Z,1.80
2022-09-12T09:40:42.381Z,1.70
2022-09-12T09:43:30.365Z,1.60
2022-09-12T09:46:14.586Z,1.50
2022-09-12T09:48:52.281Z,1.60
2022-09-12T09:51:41.481Z,1.70
2022-09-12T09:54:25.543Z,1.50
2022-09-12T09:57:10.816Z,1.40
2022-09-12T10:00:07.393Z,1.40
2022-09-12T10:03:05.194Z,1.60
2022-09-12T10:06:01.696Z,1.10
2022-09-12T10:08:58.255Z,1.30
2022-09-12T10:11:54.179Z,1.20
2022-09-12T10:14:50.495Z,1.30
2022-09-12T10:17:49.877Z,1.10
2022-09-12T10:23:54.354Z,1.50
2022-09-12T10:26:54.486Z,1.40
2022-09-12T10:29:52.411Z,1.40
2022-09-12T10:32:51.010Z,1.50
2022-09-12T10:35:48.340Z,1.30
2022-09-12T10:38:44.425Z,1.50
2022-09-12T10:41:48.268Z,1.70
2022-09-12T10:53:34.776Z,1.50
2022-09-12T10:56:30.362Z,1.70
2022-09-12T10:59:20.222Z,1.70
2022-09-12T11:02:03.625Z,1.40
2022-09-12T11:04:59.297Z,1.70
2022-09-12T11:07:55.307Z,1.60
2022-09-12T11:10:59.560Z,1.50
2022-09-12T11:14:14.317Z,1.60
2022-09-12T11:16:56.504Z,1.40
2022-09-12T11:20:23.926Z,1.40
2022-09-12T11:23:17.417Z,1.80
2022-09-12T11:26:13.912Z,1.40
2022-09-12T11:29:06.118Z,1.30
2022-09-12T11:35:58.094Z,1.40
2022-09-12T11:38:35.125Z,1.40
2022-09-12T11:41:26.548Z,1.60
2022-09-12T11:48:53.516Z,1.20
2022-09-12T11:51:52.291Z,1.20
2022-09-12T11:55:05.746Z,1.10
2022-09-12T11:58:03.760Z,1.30
2022-09-12T12:00:41.569Z,0.90
2022-09-12T12:03:15.288Z,1.00
2022-09-12T12:06:34.699Z,1.00
2022-09-12T12:09:09.589Z,1.00
2022-09-12T12:11:53.119Z,1.00
2022-09-12T12:14:59.416Z,1.10
2022-09-12T12:17:36.182Z,1.10
2022-09-12T12:20:21.477Z,1.10
2022-09-12T12:23:11.209Z,1.20
2022-09-12T12:25:53.451Z,1.30
2022-09-12T12:28:59.320Z,1.10
2022-09-12T12:32:03.862Z,1.40
2022-09-12T12:34:56.223Z,1.40
2022-09-12T12:37:55.160Z,1.40
2022-09-12T12:41:24.272Z,1.20
2022-09-12T12:44:53.216Z,1.20
2022-09-12T12:47:34.164Z,1.30
2022-09-12T12:57:29.359Z,1.20
2022-09-12T13:00:32.591Z,1.00
2022-09-12T13:03:11.225Z,1.10
2022-09-12T13:05:53.406Z,1.30
2022-09-12T13:08:35.821Z,1.30
2022-09-12T13:11:34.720Z,1.10
2022-09-12T13:14:45.349Z,1.00
2022-09-12T13:17:32.889Z,1.30
2022-09-12T13:20:32.584Z,1.20
2022-09-12T13:25:35.997Z,1.20
2022-09-12T13:28:15.418Z,1.50
2022-09-12T13:30:50.585Z,1.40
2022-09-12T13:33:29.546Z,1.20
2022-09-12T13:36:18.412Z,1.30
2022-09-12T13:38:59.704Z,1.20
2022-09-12T13:42:07.878Z,1.70
2022-09-12T13:44:47.759Z,1.30
2022-09-12T13:47:46.616Z,1.20
2022-09-12T13:50:24.826Z,1.40
2022-09-12T13:57:34.719Z,1.40
2022-09-12T14:00:20.612Z,1.20
2022-09-12T14:03:12.793Z,1.40
2022-09-12T14:05:47.133Z,1.50
2022-09-12T14:08:17.857Z,1.10
2022-09-12T14:10:50.797Z,1.50
2022-09-12T14:13:24.911Z,1.80
2022-09-12T14:15:58.661Z,2.00
2022-09-12T14:18:36.198Z,2.00
2022-09-12T14:21:23.322Z,1.60
2022-09-12T14:23:53.680Z,1.50
2022-09-12T14:26:24.613Z,1.70
2022-09-12T14:28:55.506Z,1.40
2022-09-12T14:31:31.537Z,1.30
2022-09-12T14:34:21.447Z,1.60
2022-09-12T14:36:56.397Z,2.30
2022-09-12T14:39:42.386Z,2.40
2022-09-12T14:42:22.320Z,1.50
2022-09-12T14:45:08.632Z,1.70
2022-09-12T14:47:43.085Z,1.30
2022-09-12T14:50:26.855Z,1.40
2022-09-12T14:53:25.793Z,1.30
2022-09-12T14:56:09.483Z,1.20
2022-09-12T14:58:41.718Z,1.20
2022-09-12T15:01:15.210Z,1.10
2022-09-12T15:03:49.449Z,1.20
2022-09-12T15:06:31.925Z,1.20
2022-09-12T15:09:07.512Z,1.50
2022-09-12T15:11:41.249Z,2.10
2022-09-12T15:14:15.978Z,1.70
2022-09-12T15:16:46.825Z,1.80
2022-09-12T15:19:17.165Z,1.80
2022-09-12T15:21:47.546Z,1.80
2022-09-12T15:24:17.899Z,1.60
2022-09-12T15:26:48.259Z,1.20
2022-09-12T15:29:18.598Z,1.50
2022-09-12T15:31:53.109Z,1.30
2022-09-12T15:34:23.494Z,1.20
2022-09-12T15:36:53.881Z,1.30
2022-09-12T15:39:24.210Z,1.30
2022-09-12T15:41:54.535Z,1.30
2022-09-12T15:44:25.192Z,1.30
2022-09-12T15:46:55.524Z,1.30
2022-09-12T15:49:25.904Z,1.80
2022-09-12T15:51:56.272Z,1.40
2022-09-12T15:54:29.128Z,1.50
2022-09-12T15:56:59.818Z,1.40
2022-09-12T15:59:32.184Z,1.40
2022-09-12T16:02:03.560Z,1.30
2022-09-12T16:04:34.027Z,1.70
2022-09-12T16:07:04.402Z,1.10
2022-09-12T16:09:35.136Z,1.50
2022-09-12T16:12:05.956Z,1.50
2022-09-12T16:14:36.182Z,1.30
2022-09-12T16:17:06.551Z,1.60
2022-09-12T16:19:39.982Z,1.70
2022-09-12T16:22:10.072Z,1.60
2022-09-12T16:24:40.518Z,1.80
2022-09-12T16:27:11.282Z,1.60
2022-09-12T16:29:41.773Z,1.60
2022-09-12T16:32:12.899Z,1.70
2022-09-12T16:34:43.548Z,1.60
2022-09-12T16:37:14.005Z,1.60
2022-09-12T16:39:44.717Z,1.80
2022-09-12T16:42:15.087Z,1.30
2022-09-12T16:44:45.600Z,1.50
2022-09-12T16:47:16.747Z,1.70
2022-09-12T16:49:51.757Z,1.60
2022-09-12T16:52:22.001Z,2.20
2022-09-12T16:54:52.401Z,2.20
2022-09-12T16:58:43.905Z,2.00
2022-09-12T17:01:17.152Z,1.90
2022-09-12T17:03:48.019Z,2.50
2022-09-12T17:06:20.472Z,2.10
2022-09-12T17:14:04.979Z,1.70
2022-09-12T17:16:44.472Z,2.00
2022-09-12T17:19:23.476Z,1.90
2022-09-12T17:21:54.185Z,2.10
2022-09-12T17:24:25.026Z,1.80
2022-09-12T17:26:55.846Z,2.20
2022-09-12T17:29:26.472Z,1.80
2022-09-12T17:31:56.818Z,1.80
2022-09-12T17:34:27.327Z,1.70
2022-09-12T17:36:57.582Z,1.60
2022-09-12T17:39:27.939Z,1.50
2022-09-12T17:42:00.748Z,1.70
2022-09-12T17:44:31.146Z,1.70
2022-09-12T17:47:01.421Z,1.70
2022-09-12T17:49:32.284Z,1.80
2022-09-12T17:52:02.778Z,1.40
2022-09-12T17:54:33.263Z,1.70
2022-09-12T17:57:05.242Z,1.70
2022-09-12T17:59:35.759Z,1.50
2022-09-12T18:02:16.489Z,1.90
2022-09-12T18:04:48.892Z,1.60
2022-09-12T18:07:21.501Z,1.90
2022-09-12T18:09:54.642Z,1.90
2022-09-12T18:12:25.195Z,1.70
2022-09-12T18:14:55.702Z,2.20
2022-09-12T18:17:26.513Z,2.00
2022-09-12T18:19:57.213Z,1.90
2022-09-12T18:22:27.864Z,2.00
2022-09-12T18:24:58.545Z,1.70
2022-09-12T18:27:28.862Z,1.80
2022-09-12T18:30:20.034Z,1.70
2022-09-12T18:32:49.772Z,1.80
2022-09-12T18:35:20.659Z,1.90
2022-09-12T18:37:51.405Z,1.70
2022-09-12T18:40:22.132Z,1.80
2022-09-12T18:42:57.266Z,1.90
2022-09-12T18:45:28.127Z,1.90
2022-09-12T18:47:58.864Z,2.10
2022-09-12T18:50:29.207Z,1.60
2022-09-12T18:53:00.068Z,1.90
2022-09-12T18:55:35.074Z,1.90
2022-09-12T18:58:05.672Z,1.80
2022-09-12T19:00:37.064Z,1.90
2022-09-12T19:03:07.608Z,1.60
2022-09-12T19:05:41.272Z,1.80
2022-09-12T19:08:12.036Z,2.00
2022-09-12T19:10:42.937Z,1.60
2022-09-12T19:13:13.877Z,1.60
2022-09-12T19:15:45.719Z,1.90
2022-09-12T19:18:18.319Z,1.90
2022-09-12T19:20:53.576Z,2.00
2022-09-12T19:23:24.472Z,2.10
2022-09-12T19:26:03.213Z,1.90
2022-09-12T19:28:34.432Z,2.10
2022-09-12T19:31:09.999Z,2.00
2022-09-12T19:33:41.550Z,2.10
2022-09-12T19:37:15.768Z,2.00
2022-09-12T19:39:46.922Z,2.10
2022-09-12T19:42:20.590Z,2.00
2022-09-12T19:44:56.322Z,2.20
2022-09-12T19:47:27.197Z,2.10
2022-09-12T19:49:57.967Z,1.60
2022-09-12T19:52:28.478Z,2.10
2022-09-12T19:54:58.856Z,2.00
2022-09-12T19:57:29.612Z,2.40
2022-09-12T19:59:59.971Z,2.30
2022-09-12T20:02:31.012Z,2.20
2022-09-12T20:05:01.580Z,2.00
2022-09-12T20:07:31.953Z,2.10
2022-09-12T20:10:03.761Z,2.10
2022-09-12T20:12:34.105Z,2.10
2022-09-12T20:15:15.338Z,2.10
2022-09-12T20:17:46.262Z,2.10
2022-09-12T20:20:18.008Z,2.10
2022-09-12T20:22:52.281Z,2.10
2022-09-12T20:25:22.648Z,2.10
2022-09-12T20:27:59.961Z,2.10
2022-09-12T20:30:30.787Z,2.10
2022-09-12T20:33:01.242Z,2.60
2022-09-12T20:35:31.844Z,2.40
2022-09-12T20:38:02.278Z,2.10
2022-09-12T20:40:32.673Z,2.30
2022-09-12T20:43:02.833Z,2.40
2022-09-12T20:45:33.336Z,2.30
2022-09-12T20:48:03.829Z,2.60
2022-09-12T20:50:34.272Z,2.30
2022-09-12T20:53:05.773Z,2.40
2022-09-12T20:55:36.180Z,2.50
2022-09-12T20:58:06.637Z,2.30
2022-09-12T21:00:37.046Z,2.20
2022-09-12T21:03:08.629Z,2.50
2022-09-12T21:05:39.612Z,2.20
2022-09-12T21:08:10.293Z,2.20
2022-09-12T21:10:43.286Z,2.60
2022-09-12T21:13:14.947Z,2.20
2022-09-12T21:15:45.557Z,2.80
2022-09-12T21:18:16.218Z,2.50
2022-09-12T21:20:54.059Z,2.40
2022-09-12T21:23:26.039Z,2.30
2022-09-12T21:25:56.568Z,2.70
2022-09-12T21:28:27.376Z,2.70
2022-09-12T21:30:57.993Z,2.50
2022-09-12T21:33:28.905Z,2.80
2022-09-12T21:36:04.665Z,2.50
2022-09-12T21:38:36.033Z,2.30
2022-09-12T21:41:12.495Z,2.40
2022-09-12T21:43:43.356Z,2.60
2022-09-12T21:46:14.142Z,2.50
2022-09-12T21:48:45.775Z,2.30
2022-09-12T21:51:16.200Z,2.50
2022-09-12T21:53:46.393Z,2.00
2022-09-12T21:56:16.651Z,2.30
2022-09-12T21:58:46.872Z,2.20
2022-09-12T22:01:19.642Z,2.10
2022-09-12T22:03:50.573Z,2.30
2022-09-12T22:06:22.632Z,2.60
2022-09-12T22:08:53.153Z,2.20
2022-09-12T22:11:24.298Z,2.40
2022-09-12T22:13:54.926Z,2.10
2022-09-12T22:16:25.449Z,2.50
2022-09-12T22:18:55.933Z,2.70
2022-09-12T22:21:26.414Z,2.40
2022-09-12T22:24:25.002Z,2.50
2022-09-12T22:26:55.792Z,2.80
2022-09-12T22:29:26.202Z,2.70
2022-09-12T22:31:56.541Z,2.90
2022-09-12T22:34:26.852Z,2.50
2022-09-12T22:36:58.099Z,2.60
2022-09-12T22:39:28.564Z,2.60
2022-09-12T22:41:58.873Z,3.20
2022-09-12T22:44:29.447Z,3.10
2022-09-12T22:47:00.439Z,2.90
2022-09-12T22:49:31.407Z,2.60
2022-09-12T22:52:01.647Z,2.90
2022-09-12T22:54:32.037Z,3.00
2022-09-12T22:57:02.546Z,2.60
2022-09-12T22:59:32.936Z,2.70
2022-09-12T23:02:36.488Z,2.80
2022-09-12T23:05:07.089Z,3.00
2022-09-12T23:07:37.387Z,3.10
2022-09-12T23:10:08.195Z,2.90
2022-09-12T23:12:38.583Z,2.80
2022-09-12T23:15:10.524Z,3.40
2022-09-12T23:17:40.928Z,3.00
2022-09-12T23:20:11.366Z,3.30
2022-09-12T23:22:41.726Z,3.10
2022-09-12T23:25:12.168Z,3.40
2022-09-12T23:27:46.386Z,3.00
2022-09-12T23:30:18.174Z,3.50
2022-09-12T23:32:49.049Z,3.40
2022-09-12T23:35:20.667Z,3.20
2022-09-12T23:37:51.018Z,3.80
2022-09-12T23:40:21.384Z,3.40
2022-09-12T23:42:51.798Z,3.60
2022-09-12T23:45:22.181Z,3.70
2022-09-12T23:47:52.682Z,3.20
2022-09-12T23:50:24.219Z,3.40
2022-09-12T23:52:54.526Z,3.50
2022-09-12T23:55:25.028Z,3.40
2022-09-12T23:57:55.326Z,3.40
